sensor_id;sensor_type;location;lat;lon;timestamp;P1;durP1;ratioP1;P2;durP2;ratioP2
9970;SDS011;5026;51.494;11.974;2023-03-23T00:01:09;4.20;;;2.58;;
9970;SDS011;5026;51.494;11.974;2023-03-23T00:03:38;3.28;;;2.00;;
9970;SDS011;5026;51.494;11.974;2023-03-23T00:06:05;2.17;;;1.60;;
9970;SDS011;5026;51.494;11.974;2023-03-23T00:08:33;2.05;;;1.50;;
9970;SDS011;5026;51.494;11.974;2023-03-23T00:11:04;4.05;;;1.90;;
9970;SDS011;5026;51.494;11.974;2023-03-23T00:13:32;1.95;;;1.40;;
9970;SDS011;5026;51.494;11.974;2023-03-23T00:15:59;2.67;;;1.40;;
9970;SDS011;5026;51.494;11.974;2023-03-23T00:18:27;3.30;;;1.33;;
9970;SDS011;5026;51.494;11.974;2023-03-23T00:20:54;2.10;;;1.20;;
9970;SDS011;5026;51.494;11.974;2023-03-23T00:23:24;3.10;;;1.45;;
9970;SDS011;5026;51.494;11.974;2023-03-23T00:25:54;2.90;;;1.48;;
9970;SDS011;5026;51.494;11.974;2023-03-23T00:28:24;1.83;;;1.30;;
9970;SDS011;5026;51.494;11.974;2023-03-23T00:30:56;1.42;;;1.27;;
9970;SDS011;5026;51.494;11.974;2023-03-23T00:33:23;2.95;;;1.40;;
9970;SDS011;5026;51.494;11.974;2023-03-23T00:35:53;1.70;;;1.30;;
9970;SDS011;5026;51.494;11.974;2023-03-23T00:38:20;1.30;;;1.08;;
9970;SDS011;5026;51.494;11.974;2023-03-23T00:40:47;2.20;;;1.30;;
9970;SDS011;5026;51.494;11.974;2023-03-23T00:43:14;4.55;;;1.50;;
9970;SDS011;5026;51.494;11.974;2023-03-23T00:45:43;2.22;;;1.40;;
9970;SDS011;5026;51.494;11.974;2023-03-23T00:48:14;1.83;;;1.40;;
9970;SDS011;5026;51.494;11.974;2023-03-23T00:50:42;1.80;;;1.20;;
9970;SDS011;5026;51.494;11.974;2023-03-23T00:53:09;1.90;;;1.50;;
9970;SDS011;5026;51.494;11.974;2023-03-23T00:55:35;2.20;;;1.27;;
9970;SDS011;5026;51.494;11.974;2023-03-23T00:58:02;1.05;;;1.05;;
9970;SDS011;5026;51.494;11.974;2023-03-23T01:00:30;3.08;;;1.13;;
9970;SDS011;5026;51.494;11.974;2023-03-23T01:02:58;1.20;;;1.10;;
9970;SDS011;5026;51.494;11.974;2023-03-23T01:05:25;1.77;;;1.20;;
9970;SDS011;5026;51.494;11.974;2023-03-23T01:07:56;2.85;;;1.10;;
9970;SDS011;5026;51.494;11.974;2023-03-23T01:10:24;1.45;;;0.95;;
9970;SDS011;5026;51.494;11.974;2023-03-23T01:12:51;2.72;;;1.00;;
9970;SDS011;5026;51.494;11.974;2023-03-23T01:15:18;2.40;;;1.40;;
9970;SDS011;5026;51.494;11.974;2023-03-23T01:17:46;1.07;;;0.80;;
9970;SDS011;5026;51.494;11.974;2023-03-23T01:20:14;3.38;;;0.90;;
9970;SDS011;5026;51.494;11.974;2023-03-23T01:22:42;1.63;;;1.15;;
9970;SDS011;5026;51.494;11.974;2023-03-23T01:25:10;1.25;;;0.90;;
9970;SDS011;5026;51.494;11.974;2023-03-23T01:27:38;1.85;;;0.90;;
9970;SDS011;5026;51.494;11.974;2023-03-23T01:30:05;1.85;;;1.25;;
9970;SDS011;5026;51.494;11.974;2023-03-23T01:32:34;1.15;;;1.05;;
9970;SDS011;5026;51.494;11.974;2023-03-23T01:35:01;1.35;;;0.90;;
9970;SDS011;5026;51.494;11.974;2023-03-23T01:37:29;2.10;;;0.90;;
9970;SDS011;5026;51.494;11.974;2023-03-23T01:39:57;2.78;;;1.00;;
9970;SDS011;5026;51.494;11.974;2023-03-23T01:42:24;1.80;;;1.33;;
9970;SDS011;5026;51.494;11.974;2023-03-23T01:48:04;1.27;;;1.10;;
9970;SDS011;5026;51.494;11.974;2023-03-23T01:50:37;1.20;;;1.10;;
9970;SDS011;5026;51.494;11.974;2023-03-23T01:53:11;1.35;;;1.05;;
9970;SDS011;5026;51.494;11.974;2023-03-23T01:55:39;1.35;;;1.15;;
9970;SDS011;5026;51.494;11.974;2023-03-23T01:58:09;0.98;;;0.98;;
9970;SDS011;5026;51.494;11.974;2023-03-23T02:00:38;2.08;;;1.10;;
9970;SDS011;5026;51.494;11.974;2023-03-23T02:03:07;1.10;;;0.90;;
9970;SDS011;5026;51.494;11.974;2023-03-23T02:05:39;3.47;;;1.05;;
9970;SDS011;5026;51.494;11.974;2023-03-23T02:08:07;1.52;;;1.10;;
9970;SDS011;5026;51.494;11.974;2023-03-23T02:10:37;1.10;;;0.98;;
9970;SDS011;5026;51.494;11.974;2023-03-23T02:13:05;1.25;;;0.98;;
9970;SDS011;5026;51.494;11.974;2023-03-23T02:15:46;1.10;;;1.00;;
9970;SDS011;5026;51.494;11.974;2023-03-23T02:18:24;2.13;;;0.88;;
9970;SDS011;5026;51.494;11.974;2023-03-23T02:21:07;1.20;;;0.90;;
9970;SDS011;5026;51.494;11.974;2023-03-23T02:24:07;1.25;;;1.05;;
9970;SDS011;5026;51.494;11.974;2023-03-23T02:26:57;1.95;;;1.08;;
9970;SDS011;5026;51.494;11.974;2023-03-23T02:29:30;1.45;;;1.00;;
9970;SDS011;5026;51.494;11.974;2023-03-23T02:32:21;1.88;;;1.10;;
9970;SDS011;5026;51.494;11.974;2023-03-23T02:35:10;1.83;;;1.17;;
9970;SDS011;5026;51.494;11.974;2023-03-23T02:37:43;1.50;;;0.98;;
9970;SDS011;5026;51.494;11.974;2023-03-23T02:40:15;3.45;;;1.25;;
9970;SDS011;5026;51.494;11.974;2023-03-23T02:42:47;2.75;;;1.50;;
9970;SDS011;5026;51.494;11.974;2023-03-23T02:45:17;1.80;;;1.00;;
9970;SDS011;5026;51.494;11.974;2023-03-23T02:47:46;2.95;;;1.10;;
9970;SDS011;5026;51.494;11.974;2023-03-23T02:50:17;1.17;;;1.00;;
9970;SDS011;5026;51.494;11.974;2023-03-23T02:52:48;3.55;;;1.00;;
9970;SDS011;5026;51.494;11.974;2023-03-23T02:55:16;2.22;;;0.77;;
9970;SDS011;5026;51.494;11.974;2023-03-23T02:57:45;0.98;;;0.85;;
9970;SDS011;5026;51.494;11.974;2023-03-23T03:00:14;3.03;;;0.80;;
9970;SDS011;5026;51.494;11.974;2023-03-23T03:02:44;1.15;;;0.90;;
9970;SDS011;5026;51.494;11.974;2023-03-23T03:05:20;1.05;;;0.70;;
9970;SDS011;5026;51.494;11.974;2023-03-23T03:07:58;2.78;;;0.93;;
9970;SDS011;5026;51.494;11.974;2023-03-23T03:10:32;1.15;;;0.93;;
9970;SDS011;5026;51.494;11.974;2023-03-23T03:13:07;1.70;;;0.70;;
9970;SDS011;5026;51.494;11.974;2023-03-23T03:15:43;2.08;;;0.88;;
9970;SDS011;5026;51.494;11.974;2023-03-23T03:18:15;0.85;;;0.85;;
9970;SDS011;5026;51.494;11.974;2023-03-23T03:20:49;1.92;;;0.90;;
9970;SDS011;5026;51.494;11.974;2023-03-23T03:23:19;1.30;;;1.17;;
9970;SDS011;5026;51.494;11.974;2023-03-23T03:25:49;1.52;;;1.02;;
9970;SDS011;5026;51.494;11.974;2023-03-23T03:28:18;0.90;;;0.90;;
9970;SDS011;5026;51.494;11.974;2023-03-23T03:30:47;1.23;;;0.90;;
9970;SDS011;5026;51.494;11.974;2023-03-23T03:33:19;1.67;;;1.10;;
9970;SDS011;5026;51.494;11.974;2023-03-23T03:35:51;1.52;;;1.00;;
9970;SDS011;5026;51.494;11.974;2023-03-23T03:38:21;0.98;;;0.82;;
9970;SDS011;5026;51.494;11.974;2023-03-23T03:40:48;1.10;;;1.00;;
9970;SDS011;5026;51.494;11.974;2023-03-23T03:43:15;0.98;;;0.88;;
9970;SDS011;5026;51.494;11.974;2023-03-23T03:45:42;2.03;;;1.20;;
9970;SDS011;5026;51.494;11.974;2023-03-23T03:48:09;2.45;;;1.10;;
9970;SDS011;5026;51.494;11.974;2023-03-23T03:50:36;2.13;;;0.80;;
9970;SDS011;5026;51.494;11.974;2023-03-23T03:53:04;2.45;;;0.95;;
9970;SDS011;5026;51.494;11.974;2023-03-23T03:55:31;2.53;;;1.13;;
9970;SDS011;5026;51.494;11.974;2023-03-23T03:58:00;2.47;;;0.82;;
9970;SDS011;5026;51.494;11.974;2023-03-23T04:00:27;2.42;;;1.10;;
9970;SDS011;5026;51.494;11.974;2023-03-23T04:02:54;0.98;;;0.90;;
9970;SDS011;5026;51.494;11.974;2023-03-23T04:05:21;2.88;;;1.02;;
9970;SDS011;5026;51.494;11.974;2023-03-23T04:07:49;2.38;;;1.10;;
9970;SDS011;5026;51.494;11.974;2023-03-23T04:10:21;4.55;;;1.20;;
9970;SDS011;5026;51.494;11.974;2023-03-23T04:12:49;1.63;;;1.17;;
9970;SDS011;5026;51.494;11.974;2023-03-23T04:15:16;0.95;;;0.95;;
9970;SDS011;5026;51.494;11.974;2023-03-23T04:17:43;1.25;;;1.15;;
9970;SDS011;5026;51.494;11.974;2023-03-23T04:20:11;1.85;;;1.00;;
9970;SDS011;5026;51.494;11.974;2023-03-23T04:22:42;3.10;;;1.50;;
9970;SDS011;5026;51.494;11.974;2023-03-23T04:25:10;2.00;;;1.05;;
9970;SDS011;5026;51.494;11.974;2023-03-23T04:27:41;1.27;;;1.08;;
9970;SDS011;5026;51.494;11.974;2023-03-23T04:30:12;1.25;;;1.15;;
9970;SDS011;5026;51.494;11.974;2023-03-23T04:32:39;2.28;;;1.38;;
9970;SDS011;5026;51.494;11.974;2023-03-23T04:35:08;0.85;;;0.85;;
9970;SDS011;5026;51.494;11.974;2023-03-23T04:37:38;1.80;;;1.30;;
9970;SDS011;5026;51.494;11.974;2023-03-23T04:40:06;2.97;;;1.33;;
9970;SDS011;5026;51.494;11.974;2023-03-23T04:42:38;2.35;;;1.33;;
9970;SDS011;5026;51.494;11.974;2023-03-23T04:45:10;1.15;;;0.90;;
9970;SDS011;5026;51.494;11.974;2023-03-23T04:47:42;1.15;;;1.00;;
9970;SDS011;5026;51.494;11.974;2023-03-23T04:50:18;1.38;;;1.00;;
9970;SDS011;5026;51.494;11.974;2023-03-23T04:52:49;1.65;;;1.08;;
9970;SDS011;5026;51.494;11.974;2023-03-23T04:55:17;3.42;;;1.20;;
9970;SDS011;5026;51.494;11.974;2023-03-23T04:57:46;1.30;;;1.20;;
9970;SDS011;5026;51.494;11.974;2023-03-23T05:00:13;1.55;;;1.15;;
9970;SDS011;5026;51.494;11.974;2023-03-23T05:02:41;1.73;;;1.02;;
9970;SDS011;5026;51.494;11.974;2023-03-23T05:05:09;1.02;;;0.90;;
9970;SDS011;5026;51.494;11.974;2023-03-23T05:07:38;1.98;;;1.17;;
9970;SDS011;5026;51.494;11.974;2023-03-23T05:10:06;2.13;;;1.00;;
9970;SDS011;5026;51.494;11.974;2023-03-23T05:12:34;1.35;;;1.20;;
9970;SDS011;5026;51.494;11.974;2023-03-23T05:15:02;1.15;;;1.05;;
9970;SDS011;5026;51.494;11.974;2023-03-23T05:17:30;2.58;;;1.20;;
9970;SDS011;5026;51.494;11.974;2023-03-23T05:19:58;2.42;;;1.20;;
9970;SDS011;5026;51.494;11.974;2023-03-23T05:22:26;1.73;;;1.50;;
9970;SDS011;5026;51.494;11.974;2023-03-23T05:24:53;1.88;;;1.30;;
9970;SDS011;5026;51.494;11.974;2023-03-23T05:27:20;2.17;;;1.15;;
9970;SDS011;5026;51.494;11.974;2023-03-23T05:29:47;1.75;;;1.48;;
9970;SDS011;5026;51.494;11.974;2023-03-23T05:32:15;1.20;;;1.10;;
9970;SDS011;5026;51.494;11.974;2023-03-23T05:34:44;2.75;;;1.10;;
9970;SDS011;5026;51.494;11.974;2023-03-23T05:37:11;1.73;;;1.00;;
9970;SDS011;5026;51.494;11.974;2023-03-23T05:39:38;1.52;;;1.10;;
9970;SDS011;5026;51.494;11.974;2023-03-23T05:42:06;2.55;;;1.10;;
9970;SDS011;5026;51.494;11.974;2023-03-23T05:44:33;1.35;;;0.85;;
9970;SDS011;5026;51.494;11.974;2023-03-23T05:47:00;1.95;;;0.88;;
9970;SDS011;5026;51.494;11.974;2023-03-23T05:49:29;1.15;;;1.05;;
9970;SDS011;5026;51.494;11.974;2023-03-23T05:51:56;1.90;;;1.00;;
9970;SDS011;5026;51.494;11.974;2023-03-23T05:54:23;1.60;;;1.20;;
9970;SDS011;5026;51.494;11.974;2023-03-23T05:56:50;2.28;;;1.42;;
9970;SDS011;5026;51.494;11.974;2023-03-23T05:59:17;2.65;;;1.30;;
9970;SDS011;5026;51.494;11.974;2023-03-23T06:01:44;1.35;;;1.20;;
9970;SDS011;5026;51.494;11.974;2023-03-23T06:04:11;1.00;;;0.93;;
9970;SDS011;5026;51.494;11.974;2023-03-23T06:06:40;2.45;;;1.10;;
9970;SDS011;5026;51.494;11.974;2023-03-23T06:09:08;2.60;;;1.30;;
9970;SDS011;5026;51.494;11.974;2023-03-23T06:11:36;1.23;;;1.15;;
9970;SDS011;5026;51.494;11.974;2023-03-23T06:14:03;1.63;;;0.88;;
9970;SDS011;5026;51.494;11.974;2023-03-23T06:16:30;1.45;;;0.90;;
9970;SDS011;5026;51.494;11.974;2023-03-23T06:18:57;1.75;;;1.17;;
9970;SDS011;5026;51.494;11.974;2023-03-23T06:21:25;2.75;;;1.58;;
9970;SDS011;5026;51.494;11.974;2023-03-23T06:23:54;1.20;;;1.10;;
9970;SDS011;5026;51.494;11.974;2023-03-23T06:26:21;2.20;;;1.05;;
9970;SDS011;5026;51.494;11.974;2023-03-23T06:28:55;1.10;;;1.00;;
9970;SDS011;5026;51.494;11.974;2023-03-23T06:31:22;2.22;;;1.15;;
9970;SDS011;5026;51.494;11.974;2023-03-23T06:33:56;1.38;;;1.17;;
9970;SDS011;5026;51.494;11.974;2023-03-23T06:36:23;1.42;;;0.82;;
9970;SDS011;5026;51.494;11.974;2023-03-23T06:38:51;2.08;;;1.30;;
9970;SDS011;5026;51.494;11.974;2023-03-23T06:41:20;1.83;;;1.20;;
9970;SDS011;5026;51.494;11.974;2023-03-23T06:43:47;1.85;;;1.20;;
9970;SDS011;5026;51.494;11.974;2023-03-23T06:46:14;1.63;;;1.25;;
9970;SDS011;5026;51.494;11.974;2023-03-23T06:48:41;1.52;;;1.30;;
9970;SDS011;5026;51.494;11.974;2023-03-23T06:51:08;2.00;;;1.40;;
9970;SDS011;5026;51.494;11.974;2023-03-23T06:53:35;1.48;;;1.08;;
9970;SDS011;5026;51.494;11.974;2023-03-23T06:56:03;1.88;;;1.25;;
9970;SDS011;5026;51.494;11.974;2023-03-23T06:58:31;1.30;;;1.20;;
9970;SDS011;5026;51.494;11.974;2023-03-23T07:00:57;2.60;;;1.08;;
9970;SDS011;5026;51.494;11.974;2023-03-23T07:03:26;1.58;;;1.48;;
9970;SDS011;5026;51.494;11.974;2023-03-23T07:05:53;2.90;;;1.60;;
9970;SDS011;5026;51.494;11.974;2023-03-23T07:08:20;2.30;;;1.23;;
9970;SDS011;5026;51.494;11.974;2023-03-23T07:10:47;2.78;;;1.50;;
9970;SDS011;5026;51.494;11.974;2023-03-23T07:13:18;2.15;;;1.50;;
9970;SDS011;5026;51.494;11.974;2023-03-23T07:15:46;4.40;;;1.67;;
9970;SDS011;5026;51.494;11.974;2023-03-23T07:18:13;3.95;;;1.05;;
9970;SDS011;5026;51.494;11.974;2023-03-23T07:20:40;1.80;;;1.20;;
9970;SDS011;5026;51.494;11.974;2023-03-23T07:23:07;2.40;;;1.60;;
9970;SDS011;5026;51.494;11.974;2023-03-23T07:25:35;2.33;;;1.42;;
9970;SDS011;5026;51.494;11.974;2023-03-23T07:28:02;1.00;;;0.90;;
9970;SDS011;5026;51.494;11.974;2023-03-23T07:30:31;1.45;;;1.33;;
9970;SDS011;5026;51.494;11.974;2023-03-23T07:32:58;1.30;;;1.20;;
9970;SDS011;5026;51.494;11.974;2023-03-23T07:35:25;1.52;;;1.40;;
9970;SDS011;5026;51.494;11.974;2023-03-23T07:37:52;2.58;;;2.00;;
9970;SDS011;5026;51.494;11.974;2023-03-23T07:40:20;1.90;;;1.50;;
9970;SDS011;5026;51.494;11.974;2023-03-23T07:42:51;1.80;;;1.50;;
9970;SDS011;5026;51.494;11.974;2023-03-23T07:45:19;1.50;;;1.17;;
9970;SDS011;5026;51.494;11.974;2023-03-23T07:47:47;4.88;;;1.67;;
9970;SDS011;5026;51.494;11.974;2023-03-23T07:50:15;2.25;;;1.33;;
9970;SDS011;5026;51.494;11.974;2023-03-23T07:52:43;2.33;;;1.48;;
9970;SDS011;5026;51.494;11.974;2023-03-23T07:55:11;3.15;;;1.77;;
9970;SDS011;5026;51.494;11.974;2023-03-23T07:57:42;2.35;;;1.42;;
9970;SDS011;5026;51.494;11.974;2023-03-23T08:00:10;2.47;;;1.42;;
9970;SDS011;5026;51.494;11.974;2023-03-23T08:02:40;2.22;;;2.03;;
9970;SDS011;5026;51.494;11.974;2023-03-23T08:05:08;1.30;;;1.20;;
9970;SDS011;5026;51.494;11.974;2023-03-23T08:07:38;1.63;;;1.52;;
9970;SDS011;5026;51.494;11.974;2023-03-23T08:10:05;1.90;;;1.10;;
9970;SDS011;5026;51.494;11.974;2023-03-23T08:12:35;2.53;;;1.27;;
9970;SDS011;5026;51.494;11.974;2023-03-23T08:15:03;1.67;;;1.40;;
9970;SDS011;5026;51.494;11.974;2023-03-23T08:17:31;1.75;;;1.23;;
9970;SDS011;5026;51.494;11.974;2023-03-23T08:19:59;3.88;;;1.20;;
9970;SDS011;5026;51.494;11.974;2023-03-23T08:22:34;1.58;;;1.30;;
9970;SDS011;5026;51.494;11.974;2023-03-23T08:25:01;1.48;;;1.30;;
9970;SDS011;5026;51.494;11.974;2023-03-23T08:27:29;2.92;;;1.58;;
9970;SDS011;5026;51.494;11.974;2023-03-23T08:29:56;2.45;;;1.58;;
9970;SDS011;5026;51.494;11.974;2023-03-23T08:32:23;2.60;;;1.45;;
9970;SDS011;5026;51.494;11.974;2023-03-23T08:34:50;2.45;;;1.48;;
9970;SDS011;5026;51.494;11.974;2023-03-23T08:37:17;1.63;;;1.20;;
9970;SDS011;5026;51.494;11.974;2023-03-23T08:39:45;2.22;;;1.58;;
9970;SDS011;5026;51.494;11.974;2023-03-23T08:42:12;1.42;;;1.25;;
9970;SDS011;5026;51.494;11.974;2023-03-23T08:44:39;1.33;;;1.20;;
9970;SDS011;5026;51.494;11.974;2023-03-23T08:47:06;2.53;;;1.58;;
9970;SDS011;5026;51.494;11.974;2023-03-23T08:49:33;1.25;;;1.15;;
9970;SDS011;5026;51.494;11.974;2023-03-23T08:52:00;4.75;;;1.27;;
9970;SDS011;5026;51.494;11.974;2023-03-23T08:54:27;1.50;;;1.40;;
9970;SDS011;5026;51.494;11.974;2023-03-23T08:57:00;1.40;;;1.30;;
9970;SDS011;5026;51.494;11.974;2023-03-23T08:59:27;3.80;;;1.30;;
9970;SDS011;5026;51.494;11.974;2023-03-23T09:01:55;3.08;;;1.38;;
9970;SDS011;5026;51.494;11.974;2023-03-23T09:04:22;1.50;;;1.40;;
9970;SDS011;5026;51.494;11.974;2023-03-23T09:06:48;3.28;;;1.23;;
9970;SDS011;5026;51.494;11.974;2023-03-23T09:09:15;1.75;;;1.48;;
9970;SDS011;5026;51.494;11.974;2023-03-23T09:11:42;4.00;;;1.55;;
9970;SDS011;5026;51.494;11.974;2023-03-23T09:14:11;1.30;;;1.20;;
9970;SDS011;5026;51.494;11.974;2023-03-23T09:16:37;1.60;;;1.30;;
9970;SDS011;5026;51.494;11.974;2023-03-23T09:19:05;2.17;;;1.20;;
9970;SDS011;5026;51.494;11.974;2023-03-23T09:21:33;1.63;;;1.52;;
9970;SDS011;5026;51.494;11.974;2023-03-23T09:24:01;1.58;;;1.48;;
9970;SDS011;5026;51.494;11.974;2023-03-23T09:26:28;1.90;;;1.50;;
9970;SDS011;5026;51.494;11.974;2023-03-23T09:28:55;3.58;;;1.63;;
9970;SDS011;5026;51.494;11.974;2023-03-23T09:31:24;1.60;;;1.50;;
9970;SDS011;5026;51.494;11.974;2023-03-23T09:33:52;1.52;;;1.42;;
9970;SDS011;5026;51.494;11.974;2023-03-23T09:36:22;1.70;;;1.40;;
9970;SDS011;5026;51.494;11.974;2023-03-23T09:38:50;2.33;;;1.60;;
9970;SDS011;5026;51.494;11.974;2023-03-23T09:41:22;1.80;;;1.70;;
9970;SDS011;5026;51.494;11.974;2023-03-23T09:44:03;4.15;;;1.63;;
9970;SDS011;5026;51.494;11.974;2023-03-23T09:46:40;2.47;;;1.63;;
9970;SDS011;5026;51.494;11.974;2023-03-23T09:49:15;1.70;;;1.60;;
9970;SDS011;5026;51.494;11.974;2023-03-23T09:51:46;1.70;;;1.60;;
9970;SDS011;5026;51.494;11.974;2023-03-23T09:54:19;3.58;;;1.52;;
9970;SDS011;5026;51.494;11.974;2023-03-23T09:56:50;1.50;;;1.40;;
9970;SDS011;5026;51.494;11.974;2023-03-23T09:59:19;2.00;;;1.40;;
9970;SDS011;5026;51.494;11.974;2023-03-23T10:01:52;1.50;;;1.40;;
9970;SDS011;5026;51.494;11.974;2023-03-23T10:04:26;1.80;;;1.30;;
9970;SDS011;5026;51.494;11.974;2023-03-23T10:06:58;2.30;;;1.65;;
9970;SDS011;5026;51.494;11.974;2023-03-23T10:09:32;2.20;;;1.17;;
9970;SDS011;5026;51.494;11.974;2023-03-23T10:12:02;1.83;;;1.52;;
9970;SDS011;5026;51.494;11.974;2023-03-23T10:14:41;1.98;;;1.50;;
9970;SDS011;5026;51.494;11.974;2023-03-23T10:17:18;2.05;;;1.58;;
9970;SDS011;5026;51.494;11.974;2023-03-23T10:19:55;2.65;;;1.90;;
9970;SDS011;5026;51.494;11.974;2023-03-23T10:22:34;1.85;;;1.60;;
9970;SDS011;5026;51.494;11.974;2023-03-23T10:25:06;1.85;;;1.60;;
9970;SDS011;5026;51.494;11.974;2023-03-23T10:27:42;1.60;;;1.30;;
9970;SDS011;5026;51.494;11.974;2023-03-23T10:30:15;3.55;;;1.77;;
9970;SDS011;5026;51.494;11.974;2023-03-23T10:32:48;2.05;;;1.40;;
9970;SDS011;5026;51.494;11.974;2023-03-23T10:35:19;1.58;;;1.40;;
9970;SDS011;5026;51.494;11.974;2023-03-23T10:37:52;2.63;;;1.40;;
9970;SDS011;5026;51.494;11.974;2023-03-23T10:40:27;1.52;;;1.25;;
9970;SDS011;5026;51.494;11.974;2023-03-23T10:42:57;3.97;;;1.20;;
9970;SDS011;5026;51.494;11.974;2023-03-23T10:45:25;1.40;;;1.08;;
9970;SDS011;5026;51.494;11.974;2023-03-23T10:47:56;1.65;;;1.02;;
9970;SDS011;5026;51.494;11.974;2023-03-23T10:50:28;1.83;;;1.40;;
9970;SDS011;5026;51.494;11.974;2023-03-23T10:52:57;1.20;;;1.10;;
9970;SDS011;5026;51.494;11.974;2023-03-23T10:55:34;1.08;;;0.80;;
9970;SDS011;5026;51.494;11.974;2023-03-23T10:58:04;3.58;;;1.25;;
9970;SDS011;5026;51.494;11.974;2023-03-23T11:00:33;2.15;;;1.25;;
9970;SDS011;5026;51.494;11.974;2023-03-23T11:03:22;3.10;;;1.15;;
9970;SDS011;5026;51.494;11.974;2023-03-23T11:06:00;2.05;;;1.20;;
9970;SDS011;5026;51.494;11.974;2023-03-23T11:08:30;1.25;;;1.15;;
9970;SDS011;5026;51.494;11.974;2023-03-23T11:11:07;1.30;;;1.20;;
9970;SDS011;5026;51.494;11.974;2023-03-23T11:13:38;1.55;;;0.80;;
9970;SDS011;5026;51.494;11.974;2023-03-23T11:16:09;1.05;;;0.80;;
9970;SDS011;5026;51.494;11.974;2023-03-23T11:18:49;1.73;;;0.80;;
9970;SDS011;5026;51.494;11.974;2023-03-23T11:21:17;1.65;;;0.80;;
9970;SDS011;5026;51.494;11.974;2023-03-23T11:23:49;1.17;;;1.00;;
9970;SDS011;5026;51.494;11.974;2023-03-23T11:26:19;1.90;;;1.00;;
9970;SDS011;5026;51.494;11.974;2023-03-23T11:28:52;2.03;;;0.90;;
9970;SDS011;5026;51.494;11.974;2023-03-23T11:31:21;0.88;;;0.88;;
9970;SDS011;5026;51.494;11.974;2023-03-23T11:33:53;2.40;;;0.90;;
9970;SDS011;5026;51.494;11.974;2023-03-23T11:36:28;1.15;;;1.02;;
9970;SDS011;5026;51.494;11.974;2023-03-23T11:38:57;2.00;;;1.17;;
9970;SDS011;5026;51.494;11.974;2023-03-23T11:41:28;3.03;;;1.10;;
9970;SDS011;5026;51.494;11.974;2023-03-23T11:44:01;1.40;;;1.30;;
9970;SDS011;5026;51.494;11.974;2023-03-23T11:46:37;3.22;;;1.05;;
9970;SDS011;5026;51.494;11.974;2023-03-23T11:49:12;1.80;;;0.82;;
9970;SDS011;5026;51.494;11.974;2023-03-23T11:51:47;2.85;;;1.17;;
9970;SDS011;5026;51.494;11.974;2023-03-23T11:54:19;1.98;;;1.08;;
9970;SDS011;5026;51.494;11.974;2023-03-23T11:56:52;1.30;;;1.13;;
9970;SDS011;5026;51.494;11.974;2023-03-23T11:59:26;1.10;;;1.00;;
9970;SDS011;5026;51.494;11.974;2023-03-23T12:01:56;1.48;;;1.13;;
9970;SDS011;5026;51.494;11.974;2023-03-23T12:04:52;0.90;;;0.90;;
9970;SDS011;5026;51.494;11.974;2023-03-23T12:07:31;1.80;;;1.10;;
9970;SDS011;5026;51.494;11.974;2023-03-23T12:10:11;1.40;;;1.08;;
9970;SDS011;5026;51.494;11.974;2023-03-23T12:12:50;2.15;;;1.15;;
9970;SDS011;5026;51.494;11.974;2023-03-23T12:15:24;1.42;;;1.05;;
9970;SDS011;5026;51.494;11.974;2023-03-23T12:17:59;0.93;;;0.90;;
9970;SDS011;5026;51.494;11.974;2023-03-23T12:20:35;3.20;;;1.35;;
9970;SDS011;5026;51.494;11.974;2023-03-23T12:23:13;1.38;;;0.90;;
9970;SDS011;5026;51.494;11.974;2023-03-23T12:26:03;1.70;;;1.20;;
9970;SDS011;5026;51.494;11.974;2023-03-23T12:28:56;2.30;;;1.35;;
9970;SDS011;5026;51.494;11.974;2023-03-23T12:31:33;1.20;;;1.00;;
9970;SDS011;5026;51.494;11.974;2023-03-23T12:34:10;1.02;;;0.93;;
9970;SDS011;5026;51.494;11.974;2023-03-23T12:36:53;1.08;;;0.88;;
9970;SDS011;5026;51.494;11.974;2023-03-23T12:39:33;2.03;;;0.90;;
9970;SDS011;5026;51.494;11.974;2023-03-23T12:42:16;1.55;;;1.17;;
9970;SDS011;5026;51.494;11.974;2023-03-23T12:44:53;2.25;;;1.20;;
9970;SDS011;5026;51.494;11.974;2023-03-23T12:47:29;1.38;;;1.10;;
9970;SDS011;5026;51.494;11.974;2023-03-23T12:50:04;1.30;;;1.20;;
9970;SDS011;5026;51.494;11.974;2023-03-23T12:52:38;0.80;;;0.80;;
9970;SDS011;5026;51.494;11.974;2023-03-23T12:55:13;0.90;;;0.90;;
9970;SDS011;5026;51.494;11.974;2023-03-23T12:57:44;0.73;;;0.73;;
9970;SDS011;5026;51.494;11.974;2023-03-23T13:00:18;1.20;;;0.80;;
9970;SDS011;5026;51.494;11.974;2023-03-23T13:02:49;3.90;;;0.90;;
9970;SDS011;5026;51.494;11.974;2023-03-23T13:08:10;1.10;;;1.02;;
9970;SDS011;5026;51.494;11.974;2023-03-23T13:10:42;0.90;;;0.90;;
9970;SDS011;5026;51.494;11.974;2023-03-23T13:13:13;1.40;;;0.85;;
9970;SDS011;5026;51.494;11.974;2023-03-23T13:15:46;3.60;;;0.88;;
9970;SDS011;5026;51.494;11.974;2023-03-23T13:18:31;1.33;;;0.90;;
9970;SDS011;5026;51.494;11.974;2023-03-23T13:21:08;1.08;;;0.70;;
9970;SDS011;5026;51.494;11.974;2023-03-23T13:23:43;0.75;;;0.70;;
9970;SDS011;5026;51.494;11.974;2023-03-23T13:26:14;1.17;;;1.10;;
9970;SDS011;5026;51.494;11.974;2023-03-23T13:28:51;1.20;;;0.80;;
9970;SDS011;5026;51.494;11.974;2023-03-23T13:31:23;1.92;;;0.80;;
9970;SDS011;5026;51.494;11.974;2023-03-23T13:33:57;1.13;;;0.90;;
9970;SDS011;5026;51.494;11.974;2023-03-23T13:36:30;0.85;;;0.80;;
9970;SDS011;5026;51.494;11.974;2023-03-23T13:39:01;1.35;;;0.75;;
9970;SDS011;5026;51.494;11.974;2023-03-23T13:41:34;1.38;;;0.90;;
9970;SDS011;5026;51.494;11.974;2023-03-23T13:44:15;2.13;;;1.17;;
9970;SDS011;5026;51.494;11.974;2023-03-23T13:47:08;1.30;;;0.90;;
9970;SDS011;5026;51.494;11.974;2023-03-23T13:49:50;1.13;;;0.98;;
9970;SDS011;5026;51.494;11.974;2023-03-23T13:52:21;2.65;;;1.13;;
9970;SDS011;5026;51.494;11.974;2023-03-23T13:54:52;1.63;;;0.90;;
9970;SDS011;5026;51.494;11.974;2023-03-23T13:57:36;1.80;;;0.88;;
9970;SDS011;5026;51.494;11.974;2023-03-23T14:03:00;1.05;;;0.95;;
9970;SDS011;5026;51.494;11.974;2023-03-23T14:05:36;1.05;;;0.95;;
9970;SDS011;5026;51.494;11.974;2023-03-23T14:08:10;1.27;;;0.95;;
9970;SDS011;5026;51.494;11.974;2023-03-23T14:10:42;1.08;;;0.98;;
9970;SDS011;5026;51.494;11.974;2023-03-23T14:13:14;1.88;;;1.23;;
9970;SDS011;5026;51.494;11.974;2023-03-23T14:15:54;1.00;;;0.80;;
9970;SDS011;5026;51.494;11.974;2023-03-23T14:18:25;2.15;;;0.90;;
9970;SDS011;5026;51.494;11.974;2023-03-23T14:20:59;1.70;;;1.17;;
9970;SDS011;5026;51.494;11.974;2023-03-23T14:23:27;3.15;;;1.02;;
9970;SDS011;5026;51.494;11.974;2023-03-23T14:25:59;3.30;;;1.65;;
9970;SDS011;5026;51.494;11.974;2023-03-23T14:28:36;3.70;;;1.23;;
9970;SDS011;5026;51.494;11.974;2023-03-23T14:31:05;1.70;;;1.20;;
9970;SDS011;5026;51.494;11.974;2023-03-23T14:33:38;1.25;;;1.08;;
9970;SDS011;5026;51.494;11.974;2023-03-23T14:36:07;1.70;;;1.23;;
9970;SDS011;5026;51.494;11.974;2023-03-23T14:38:34;1.00;;;0.90;;
9970;SDS011;5026;51.494;11.974;2023-03-23T14:41:03;1.52;;;1.20;;
9970;SDS011;5026;51.494;11.974;2023-03-23T14:43:45;2.25;;;1.15;;
9970;SDS011;5026;51.494;11.974;2023-03-23T14:46:18;1.75;;;1.20;;
9970;SDS011;5026;51.494;11.974;2023-03-23T14:48:52;1.08;;;0.98;;
9970;SDS011;5026;51.494;11.974;2023-03-23T14:51:20;1.42;;;0.93;;
9970;SDS011;5026;51.494;11.974;2023-03-23T14:53:52;1.50;;;1.00;;
9970;SDS011;5026;51.494;11.974;2023-03-23T14:56:32;2.78;;;1.15;;
9970;SDS011;5026;51.494;11.974;2023-03-23T14:59:03;1.20;;;1.08;;
9970;SDS011;5026;51.494;11.974;2023-03-23T15:01:31;1.38;;;1.20;;
9970;SDS011;5026;51.494;11.974;2023-03-23T15:04:02;2.42;;;1.30;;
9970;SDS011;5026;51.494;11.974;2023-03-23T15:06:32;1.63;;;1.10;;
9970;SDS011;5026;51.494;11.974;2023-03-23T15:09:02;1.58;;;1.35;;
9970;SDS011;5026;51.494;11.974;2023-03-23T15:11:33;1.75;;;1.10;;
9970;SDS011;5026;51.494;11.974;2023-03-23T15:14:07;1.40;;;1.30;;
9970;SDS011;5026;51.494;11.974;2023-03-23T15:16:40;4.10;;;1.60;;
9970;SDS011;5026;51.494;11.974;2023-03-23T15:19:20;2.13;;;1.17;;
9970;SDS011;5026;51.494;11.974;2023-03-23T15:21:50;1.80;;;1.25;;
9970;SDS011;5026;51.494;11.974;2023-03-23T15:24:21;2.53;;;1.30;;
9970;SDS011;5026;51.494;11.974;2023-03-23T15:27:07;2.75;;;1.15;;
9970;SDS011;5026;51.494;11.974;2023-03-23T15:29:46;1.52;;;1.30;;
9970;SDS011;5026;51.494;11.974;2023-03-23T15:32:19;0.88;;;0.85;;